createdAt,value
2023-02-25T00:02:07.649Z,94254.47
2023-02-25T00:04:35.698Z,94256.69
2023-02-25T00:07:03.911Z,94258.66
2023-02-25T00:09:31.928Z,94259.88
2023-02-25T00:11:59.934Z,94260.91
2023-02-25T00:14:29.415Z,94259.41
2023-02-25T00:16:57.571Z,94263.97
2023-02-25T00:19:26.547Z,94253.56
2023-02-25T00:21:54.549Z,94252.91
2023-02-25T00:24:22.496Z,94252.53
2023-02-25T00:26:50.482Z,94266.44
2023-02-25T00:29:18.490Z,94260.56
2023-02-25T00:31:48.521Z,94253.19
2023-02-25T00:34:17.843Z,94264.41
2023-02-25T00:36:45.986Z,94250.66
2023-02-25T00:39:14.187Z,94252.22
2023-02-25T00:41:42.238Z,94247.63
2023-02-25T00:44:10.230Z,94242.19
2023-02-25T00:46:39.393Z,94241.16
2023-02-25T00:49:08.781Z,94246.38
2023-02-25T00:51:39.410Z,94239.66
2023-02-25T00:54:07.378Z,94243.22
2023-02-25T00:56:36.228Z,94234.84
2023-02-25T00:59:04.269Z,94235.97
2023-02-25T01:01:34.376Z,94233.91
2023-02-25T01:04:02.740Z,94233.91
2023-02-25T01:06:33.970Z,94232.31
2023-02-25T01:09:02.334Z,94225.53
2023-02-25T01:11:32.404Z,94221.91
2023-02-25T01:14:02.901Z,94220.81
2023-02-25T01:16:33.489Z,94219.16
2023-02-25T01:19:03.943Z,94220.66
2023-02-25T01:21:36.058Z,94217.03
2023-02-25T01:24:06.808Z,94212.91
2023-02-25T01:26:36.677Z,94207.63
2023-02-25T01:29:07.743Z,94212.72
2023-02-25T01:31:35.901Z,94205.47
2023-02-25T01:34:05.547Z,94207.72
2023-02-25T01:36:35.808Z,94196.75
2023-02-25T01:39:04.617Z,94201.97
2023-02-25T01:41:34.991Z,94197.31
2023-02-25T01:44:08.526Z,94206.13
2023-02-25T01:46:37.251Z,94202.44
2023-02-25T01:49:08.964Z,94197.13
2023-02-25T01:51:39.184Z,94197.13
2023-02-25T01:54:11.205Z,94187.19
2023-02-25T01:56:42.664Z,94181.81
2023-02-25T01:59:11.234Z,94175.66
2023-02-25T02:01:41.323Z,94177.56
2023-02-25T02:04:12.213Z,94173.13
2023-02-25T02:06:44.248Z,94176.78
2023-02-25T02:09:15.570Z,94162.72
2023-02-25T02:11:44.087Z,94164.47
2023-02-25T02:14:16.568Z,94163.69
2023-02-25T02:17:05.520Z,94156.91
2023-02-25T02:19:54.019Z,94154.22
2023-02-25T02:22:28.262Z,94157.38
2023-02-25T02:25:37.406Z,94159.91
2023-02-25T02:28:33.727Z,94150.53
2023-02-25T02:31:27.506Z,94142.16
2023-02-25T02:34:06.279Z,94144.72
2023-02-25T02:36:47.629Z,94145.69
2023-02-25T02:39:24.337Z,94138.31
2023-02-25T02:42:02.415Z,94126.66
2023-02-25T02:44:37.256Z,94138.25
2023-02-25T02:47:10.797Z,94131.00
2023-02-25T02:49:45.268Z,94129.91
2023-02-25T02:52:17.963Z,94134.91
2023-02-25T02:54:50.707Z,94121.38
2023-02-25T02:57:22.405Z,94114.13
2023-02-25T02:59:56.456Z,94117.25
2023-02-25T03:02:31.793Z,94114.13
2023-02-25T03:05:06.405Z,94111.44
2023-02-25T03:07:42.378Z,94110.09
2023-02-25T03:10:17.141Z,94109.06
2023-02-25T03:12:45.202Z,94117.91
2023-02-25T03:15:14.584Z,94113.47
2023-02-25T03:17:47.296Z,94109.19
2023-02-25T03:20:20.204Z,94117.56
2023-02-25T03:22:51.313Z,94105.41
2023-02-25T03:25:22.415Z,94111.53
2023-02-25T03:27:53.641Z,94102.25
2023-02-25T03:30:31.103Z,94098.63
2023-02-25T03:33:05.185Z,94100.28
2023-02-25T03:35:36.325Z,94105.13
2023-02-25T03:38:09.452Z,94102.59
2023-02-25T03:40:38.863Z,94096.94
2023-02-25T03:43:11.570Z,94095.34
2023-02-25T03:45:42.531Z,94097.97
2023-02-25T03:48:14.873Z,94095.81
2023-02-25T03:50:48.088Z,94106.78
2023-02-25T03:53:16.828Z,94103.88
2023-02-25T03:56:08.354Z,94098.00
2023-02-25T03:58:39.504Z,94099.94
2023-02-25T04:01:10.965Z,94097.31
2023-02-25T04:03:40.488Z,94089.06
2023-02-25T04:06:09.151Z,94097.41
2023-02-25T04:08:37.177Z,94092.19
2023-02-25T04:11:05.464Z,94085.44
2023-02-25T04:13:34.113Z,94080.78
2023-02-25T04:16:02.158Z,94076.59
2023-02-25T04:18:30.241Z,94071.94
2023-02-25T04:20:59.597Z,94076.59
2023-02-25T04:23:27.695Z,94074.56
2023-02-25T04:25:55.710Z,94071.94
2023-02-25T04:28:23.717Z,94072.97
2023-02-25T04:30:51.782Z,94070.84
2023-02-25T04:33:19.852Z,94066.19
2023-02-25T04:35:47.825Z,94068.31
2023-02-25T04:38:17.171Z,94070.94
2023-02-25T04:40:45.143Z,94064.16
2023-02-25T04:43:13.106Z,94072.66
2023-02-25T04:45:41.097Z,94061.47
2023-02-25T04:48:09.100Z,94064.53
2023-02-25T04:50:37.105Z,94062.38
2023-02-25T04:53:05.188Z,94059.59
2023-02-25T04:55:37.225Z,94058.78
2023-02-25T04:58:05.251Z,94062.19
2023-02-25T05:00:33.330Z,94056.84
2023-02-25T05:03:01.355Z,94068.63
2023-02-25T05:05:29.570Z,94061.19
2023-02-25T05:07:57.589Z,94068.50
2023-02-25T05:10:25.582Z,94060.63
2023-02-25T05:12:54.930Z,94066.03
2023-02-25T05:15:22.941Z,94061.66
2023-02-25T05:17:50.927Z,94065.00
2023-02-25T05:20:19.059Z,94063.28
2023-02-25T05:22:47.046Z,94065.72
2023-02-25T05:25:15.957Z,94067.31
2023-02-25T05:27:43.992Z,94066.72
2023-02-25T05:30:14.850Z,94071.69
2023-02-25T05:32:43.028Z,94072.16
2023-02-25T05:35:12.188Z,94066.03
2023-02-25T05:37:40.290Z,94062.31
2023-02-25T05:40:10.238Z,94063.88
2023-02-25T05:42:38.573Z,94058.84
2023-02-25T05:45:07.505Z,94061.44
2023-02-25T05:47:37.274Z,94065.94
2023-02-25T05:50:05.793Z,94056.88
2023-02-25T05:52:33.809Z,94059.25
2023-02-25T05:55:02.197Z,94054.03
2023-02-25T05:57:30.884Z,94058.56
2023-02-25T05:59:58.870Z,94058.31
2023-02-25T06:02:26.923Z,94057.28
2023-02-25T06:04:56.599Z,94045.38
2023-02-25T06:07:24.585Z,94041.78
2023-02-25T06:09:52.706Z,94043.81
2023-02-25T06:12:20.673Z,94035.47
2023-02-25T06:14:48.648Z,94048.84
2023-02-25T06:17:16.694Z,94034.66
2023-02-25T06:19:44.740Z,94044.22
2023-02-25T06:22:14.560Z,94037.06
2023-02-25T06:24:42.734Z,94045.34
2023-02-25T06:27:10.714Z,94038.53
2023-02-25T06:29:41.844Z,94035.59
2023-02-25T06:32:10.452Z,94040.56
2023-02-25T06:34:38.625Z,94041.47
2023-02-25T06:37:07.109Z,94037.16
2023-02-25T06:39:36.486Z,94038.66
2023-02-25T06:42:04.562Z,94040.72
2023-02-25T06:44:32.624Z,94043.72
2023-02-25T06:47:00.596Z,94036.16
2023-02-25T06:49:28.721Z,94031.75
2023-02-25T06:51:56.773Z,94042.16
2023-02-25T06:54:24.772Z,94037.97
2023-02-25T06:56:54.412Z,94046.34
2023-02-25T06:59:22.435Z,94041.53
2023-02-25T07:01:50.446Z,94044.47
2023-02-25T07:04:20.497Z,94045.09
2023-02-25T07:06:48.618Z,94047.38
2023-02-25T07:09:16.624Z,94049.03
2023-02-25T07:11:44.839Z,94057.00
2023-02-25T07:14:16.457Z,94053.53
2023-02-25T07:16:44.443Z,94060.63
2023-02-25T07:19:15.075Z,94052.91
2023-02-25T07:21:43.845Z,94057.22
2023-02-25T07:24:12.190Z,94058.78
2023-02-25T07:26:40.880Z,94052.91
2023-02-25T07:29:08.882Z,94057.53
2023-02-25T07:31:38.456Z,94059.66
2023-02-25T07:34:06.605Z,94059.72
2023-02-25T07:36:37.557Z,94058.09
2023-02-25T07:39:07.178Z,94060.28
2023-02-25T07:41:35.817Z,94054.78
2023-02-25T07:44:05.125Z,94050.69
2023-02-25T07:46:33.562Z,94053.63
2023-02-25T07:49:03.284Z,94047.84
2023-02-25T07:51:31.379Z,94052.09
2023-02-25T07:54:00.612Z,94055.34
2023-02-25T07:56:31.198Z,94050.44
2023-02-25T07:58:59.441Z,94041.78
2023-02-25T08:01:29.412Z,94045.53
2023-02-25T08:03:59.280Z,94051.84
2023-02-25T08:06:29.311Z,94050.66
2023-02-25T08:08:57.554Z,94043.03
2023-02-25T08:11:27.401Z,94036.88
2023-02-25T08:13:55.501Z,94033.41
2023-02-25T08:16:24.024Z,94044.09
2023-02-25T08:18:53.028Z,94040.59
2023-02-25T08:21:23.466Z,94035.38
2023-02-25T08:23:54.072Z,94035.84
2023-02-25T08:26:23.849Z,94032.69
2023-02-25T08:28:52.973Z,94030.88
2023-02-25T08:31:22.373Z,94025.72
2023-02-25T08:33:52.851Z,94033.91
2023-02-25T08:36:23.019Z,94032.13
2023-02-25T08:38:51.567Z,94021.94
2023-02-25T08:41:22.316Z,94020.44
2023-02-25T08:43:52.011Z,94013.72
2023-02-25T08:46:21.281Z,94018.59
2023-02-25T08:48:50.947Z,94024.00
2023-02-25T08:51:19.430Z,94016.78
2023-02-25T08:53:47.445Z,94016.97
2023-02-25T08:56:17.436Z,94020.75
2023-02-25T08:58:46.826Z,94017.63
2023-02-25T09:01:17.103Z,94007.81
2023-02-25T09:03:52.245Z,94002.00
2023-02-25T09:06:22.069Z,94002.81
2023-02-25T09:08:50.637Z,93999.03
2023-02-25T09:11:21.058Z,93992.44
2023-02-25T09:13:50.575Z,93986.53
2023-02-25T09:16:20.360Z,93993.22
2023-02-25T09:18:50.233Z,93988.19
2023-02-25T09:21:19.498Z,93978.50
2023-02-25T09:23:51.387Z,93978.22
2023-02-25T09:26:20.448Z,93983.56
2023-02-25T09:28:50.250Z,93976.91
2023-02-25T09:31:19.250Z,93975.00
2023-02-25T09:33:47.298Z,93977.06
2023-02-25T09:36:17.632Z,93979.66
2023-02-25T09:38:47.336Z,93975.66
2023-02-25T09:41:26.583Z,93973.78
2023-02-25T09:44:05.733Z,93974.53
2023-02-25T09:46:37.433Z,93974.13
2023-02-25T09:49:13.263Z,93973.47
2023-02-25T09:51:48.049Z,93971.34
2023-02-25T09:54:21.389Z,93972.06
2023-02-25T09:56:50.452Z,93974.28
2023-02-25T09:59:22.173Z,93966.88
2023-02-25T10:01:56.852Z,93963.66
2023-02-25T10:04:33.201Z,93959.59
2023-02-25T10:07:08.754Z,93966.44
2023-02-25T10:09:46.070Z,93956.50
2023-02-25T10:12:24.761Z,93957.59
2023-02-25T10:15:28.166Z,93954.53
2023-02-25T10:18:12.509Z,93951.66
2023-02-25T10:20:50.071Z,93948.28
2023-02-25T10:23:35.590Z,93936.88
2023-02-25T10:26:09.165Z,93937.91
2023-02-25T10:28:37.362Z,93929.00
2023-02-25T10:31:07.890Z,93929.03
2023-02-25T10:33:40.348Z,93933.03
2023-02-25T10:36:11.546Z,93926.59
2023-02-25T10:38:45.298Z,93929.72
2023-02-25T10:41:14.482Z,93917.22
2023-02-25T10:43:43.767Z,93918.25
2023-02-25T10:46:15.790Z,93910.41
2023-02-25T10:48:52.282Z,93908.06
2023-02-25T10:51:20.249Z,93909.19
2023-02-25T10:54:05.094Z,93907.31
2023-02-25T10:56:39.908Z,93893.44
2023-02-25T10:59:09.888Z,93896.34
2023-02-25T11:01:40.395Z,93898.22
2023-02-25T11:04:13.369Z,93899.03
2023-02-25T11:06:43.185Z,93894.84
2023-02-25T11:09:30.296Z,93904.78
2023-02-25T11:12:01.006Z,93897.00
2023-02-25T11:14:30.994Z,93900.13
2023-02-25T11:17:08.570Z,93904.38
2023-02-25T11:19:40.675Z,93896.31
2023-02-25T11:22:12.360Z,93886.13
2023-02-25T11:24:42.891Z,93879.84
2023-02-25T11:27:27.158Z,93889.28
2023-02-25T11:30:01.855Z,93885.88
2023-02-25T11:32:30.066Z,93890.31
2023-02-25T11:35:07.881Z,93891.31
2023-02-25T11:37:39.200Z,93880.31
2023-02-25T11:40:24.019Z,93882.41
2023-02-25T11:43:03.420Z,93876.16
2023-02-25T11:45:34.559Z,93873.06
2023-02-25T11:48:05.103Z,93878.81
2023-02-25T11:50:44.154Z,93878.53
2023-02-25T11:53:22.576Z,93864.38
2023-02-25T11:56:02.065Z,93870.97
2023-02-25T11:58:45.728Z,93869.13
2023-02-25T12:01:22.293Z,93865.75
2023-02-25T12:04:05.238Z,93874.38
2023-02-25T12:06:54.883Z,93873.00
2023-02-25T12:09:46.106Z,93865.13
2023-02-25T12:12:48.659Z,93858.38
2023-02-25T12:15:36.069Z,93855.22
2023-02-25T12:18:25.606Z,93854.22
2023-02-25T12:21:27.077Z,93851.09
2023-02-25T12:24:33.230Z,93848.75
2023-02-25T12:27:36.271Z,93837.47
2023-02-25T12:30:52.045Z,93838.50
2023-02-25T12:33:34.975Z,93832.22
2023-02-25T12:36:17.737Z,93822.25
2023-02-25T12:39:26.786Z,93821.78
2023-02-25T12:42:09.201Z,93813.41
2023-02-25T12:45:04.101Z,93812.31
2023-02-25T12:47:46.666Z,93804.47
2023-02-25T12:50:39.500Z,93789.28
2023-02-25T12:53:23.431Z,93785.16
2023-02-25T12:56:14.770Z,93790.91
2023-02-25T12:58:50.135Z,93769.72
2023-02-25T13:01:42.092Z,93771.03
2023-02-25T13:04:28.279Z,93761.00
2023-02-25T13:07:07.352Z,93759.94
2023-02-25T13:10:00.423Z,93753.66
2023-02-25T13:12:48.915Z,93743.19
2023-02-25T13:15:22.002Z,93750.06
2023-02-25T13:18:16.837Z,93738.78
2023-02-25T13:21:06.738Z,93728.00
2023-02-25T13:23:49.768Z,93729.50
2023-02-25T13:26:35.542Z,93722.31
2023-02-25T13:29:40.896Z,93723.47
2023-02-25T13:32:24.189Z,93715.31
2023-02-25T13:35:06.804Z,93713.75
2023-02-25T13:37:46.625Z,93715.59
2023-02-25T13:40:29.588Z,93705.00
2023-02-25T13:43:14.608Z,93702.78
2023-02-25T13:45:58.373Z,93699.53
2023-02-25T13:49:10.988Z,93701.59
2023-02-25T13:51:58.197Z,93694.00
2023-02-25T13:54:40.091Z,93688.09
2023-02-25T13:57:26.946Z,93687.63
2023-02-25T14:00:39.720Z,93700.78
2023-02-25T14:03:34.233Z,93678.63
2023-02-25T14:06:11.683Z,93689.00
2023-02-25T14:08:54.124Z,93686.66
2023-02-25T14:11:36.974Z,93675.88
2023-02-25T14:14:35.473Z,93693.22
2023-02-25T14:17:20.257Z,93691.09
2023-02-25T14:20:02.456Z,93686.47
2023-02-25T14:22:40.395Z,93677.59
2023-02-25T14:25:21.598Z,93690.44
2023-02-25T14:28:00.295Z,93671.94
2023-02-25T14:30:42.471Z,93688.47
2023-02-25T14:33:23.319Z,93687.91
2023-02-25T14:36:04.977Z,93688.09
2023-02-25T14:38:48.131Z,93697.66
2023-02-25T14:41:31.234Z,93693.09
2023-02-25T14:44:04.870Z,93689.94
2023-02-25T14:46:40.312Z,93685.25
2023-02-25T14:49:16.693Z,93680.00
2023-02-25T14:52:23.514Z,93678.41
2023-02-25T14:55:16.379Z,93673.88
2023-02-25T14:58:13.734Z,93666.34
2023-02-25T15:01:10.266Z,93676.59
2023-02-25T15:04:04.420Z,93672.34
2023-02-25T15:06:52.656Z,93664.53
2023-02-25T15:09:39.746Z,93675.63
2023-02-25T15:12:33.367Z,93679.38
2023-02-25T15:15:29.881Z,93682.50
2023-02-25T15:18:33.548Z,93686.63
2023-02-25T15:21:36.101Z,93690.09
2023-02-25T15:24:05.527Z,93685.16
2023-02-25T15:26:44.177Z,93687.28
2023-02-25T15:29:58.211Z,93704.91
2023-02-25T15:32:30.050Z,93705.53
2023-02-25T15:35:01.714Z,93705.56
2023-02-25T15:37:35.963Z,93705.03
2023-02-25T15:40:48.959Z,93712.41
2023-02-25T15:43:42.497Z,93715.59
2023-02-25T15:46:44.398Z,93710.63
2023-02-25T15:49:32.508Z,93710.91
2023-02-25T15:52:04.487Z,93717.47
2023-02-25T15:54:48.790Z,93718.78
2023-02-25T15:57:37.425Z,93719.31
2023-02-25T16:00:48.521Z,93724.03
2023-02-25T16:03:39.418Z,93730.31
2023-02-25T16:06:13.439Z,93733.94
2023-02-25T16:08:49.469Z,93745.19
2023-02-25T16:11:25.898Z,93740.19
2023-02-25T16:13:54.700Z,93752.16
2023-02-25T16:16:24.029Z,93736.50
2023-02-25T16:18:54.466Z,93739.88
2023-02-25T16:21:27.196Z,93750.56
2023-02-25T16:23:55.861Z,93744.78
2023-02-25T16:26:32.243Z,93745.75
2023-02-25T16:29:13.755Z,93752.84
2023-02-25T16:31:47.548Z,93753.69
2023-02-25T16:34:22.865Z,93751.38
2023-02-25T16:37:02.239Z,93765.09
2023-02-25T16:39:32.716Z,93761.41
2023-02-25T16:42:05.019Z,93759.25
2023-02-25T16:44:38.941Z,93757.84
2023-02-25T16:47:21.324Z,93776.59
2023-02-25T16:49:51.714Z,93760.34
2023-02-25T16:52:24.758Z,93767.78
2023-02-25T16:54:57.838Z,93762.63
2023-02-25T16:57:26.964Z,93767.09
2023-02-25T17:00:14.358Z,93778.00
2023-02-25T17:02:47.386Z,93782.94
2023-02-25T17:05:29.176Z,93778.22
2023-02-25T17:07:59.818Z,93775.06
2023-02-25T17:10:30.825Z,93787.38
2023-02-25T17:13:02.761Z,93783.28
2023-02-25T17:15:33.321Z,93780.16
2023-02-25T17:18:11.317Z,93775.78
2023-02-25T17:20:41.565Z,93777.53
2023-02-25T17:23:14.726Z,93792.56
2023-02-25T17:25:45.129Z,93795.63
2023-02-25T17:28:22.026Z,93797.66
2023-02-25T17:30:50.554Z,93793.69
2023-02-25T17:33:26.652Z,93792.06
2023-02-25T17:36:00.274Z,93800.19
2023-02-25T17:38:30.061Z,93793.56
2023-02-25T17:40:59.331Z,93801.44
2023-02-25T17:43:34.955Z,93793.00
2023-02-25T17:46:14.998Z,93797.53
2023-02-25T17:48:51.027Z,93806.06
2023-02-25T17:51:31.132Z,93799.78
2023-02-25T17:54:06.150Z,93815.22
2023-02-25T17:56:36.093Z,93816.31
2023-02-25T17:59:08.476Z,93819.59
2023-02-25T18:01:47.879Z,93825.88
2023-02-25T18:04:25.590Z,93828.56
2023-02-25T18:06:56.409Z,93830.00
2023-02-25T18:09:40.994Z,93834.22
2023-02-25T18:12:21.308Z,93851.41
2023-02-25T18:14:54.173Z,93846.69
2023-02-25T18:17:26.836Z,93841.81
2023-02-25T18:19:57.528Z,93854.25
2023-02-25T18:22:31.784Z,93854.00
2023-02-25T18:25:01.611Z,93851.75
2023-02-25T18:27:31.567Z,93850.47
2023-02-25T18:30:09.444Z,93855.38
2023-02-25T18:32:37.454Z,93849.22
2023-02-25T18:35:06.448Z,93841.41
2023-02-25T18:37:35.939Z,93848.91
2023-02-25T18:40:04.237Z,93848.13
2023-02-25T18:42:32.271Z,93853.72
2023-02-25T18:45:00.590Z,93853.78
2023-02-25T18:47:29.934Z,93846.41
2023-02-25T18:49:57.933Z,93844.78
2023-02-25T18:52:26.837Z,93853.75
2023-02-25T18:54:56.145Z,93841.16
2023-02-25T18:57:26.441Z,93836.59
2023-02-25T18:59:54.629Z,93840.19
2023-02-25T19:02:27.993Z,93844.28
2023-02-25T19:04:56.024Z,93850.41
2023-02-25T19:07:25.926Z,93850.44
2023-02-25T19:09:54.268Z,93850.69
2023-02-25T19:12:24.455Z,93853.06
2023-02-25T19:14:58.376Z,93863.19
2023-02-25T19:17:26.884Z,93857.53
2023-02-25T19:19:54.962Z,93864.03
2023-02-25T19:22:23.123Z,93864.22
2023-02-25T19:24:52.863Z,93858.63
2023-02-25T19:27:24.079Z,93862.97
2023-02-25T19:29:57.826Z,93867.13
2023-02-25T19:32:26.538Z,93873.56
2023-02-25T19:34:54.536Z,93871.53
2023-02-25T19:37:22.500Z,93876.44
2023-02-25T19:39:50.488Z,93876.00
2023-02-25T19:42:18.816Z,93879.69
2023-02-25T19:44:48.129Z,93876.78
2023-02-25T19:47:16.123Z,93878.66
2023-02-25T19:49:44.119Z,93878.75
2023-02-25T19:52:12.085Z,93882.25
2023-02-25T19:54:40.186Z,93881.94
2023-02-25T19:57:08.219Z,93876.91
2023-02-25T19:59:36.196Z,93874.72
2023-02-25T20:02:05.608Z,93886.44
2023-02-25T20:04:33.588Z,93882.69
2023-02-25T20:07:01.643Z,93892.22
2023-02-25T20:09:29.725Z,93886.34
2023-02-25T20:11:57.693Z,93892.06
2023-02-25T20:14:28.040Z,93896.59
2023-02-25T20:16:57.114Z,93891.84
2023-02-25T20:19:27.988Z,93898.16
2023-02-25T20:21:55.988Z,93901.75
2023-02-25T20:24:24.050Z,93898.16
2023-02-25T20:26:52.109Z,93896.34
2023-02-25T20:29:20.487Z,93903.84
2023-02-25T20:31:48.678Z,93898.56
2023-02-25T20:34:19.036Z,93898.25
2023-02-25T20:36:53.453Z,93895.41
2023-02-25T20:39:47.930Z,93897.53
2023-02-25T20:42:20.035Z,93894.75
2023-02-25T20:44:50.967Z,93889.59
2023-02-25T20:47:21.685Z,93892.25
2023-02-25T20:49:51.705Z,93897.13
2023-02-25T20:52:21.819Z,93894.31
2023-02-25T20:54:49.998Z,93896.34
2023-02-25T20:57:20.778Z,93894.53
2023-02-25T20:59:49.261Z,93888.66
2023-02-25T21:02:18.272Z,93890.03
2023-02-25T21:04:47.008Z,93886.75
2023-02-25T21:07:15.010Z,93880.78
2023-02-25T21:09:44.474Z,93885.50
2023-02-25T21:12:12.956Z,93890.69
2023-02-25T21:14:40.920Z,93882.81
2023-02-25T21:17:13.631Z,93882.44
2023-02-25T21:19:42.138Z,93877.34
2023-02-25T21:22:10.315Z,93886.84
2023-02-25T21:24:38.349Z,93883.72
2023-02-25T21:27:07.920Z,93882.41
2023-02-25T21:29:35.859Z,93885.50
2023-02-25T21:32:03.842Z,93891.19
2023-02-25T21:34:31.967Z,93884.97
2023-02-25T21:36:59.985Z,93881.69
2023-02-25T21:39:28.485Z,93883.06
2023-02-25T21:41:56.414Z,93888.47
2023-02-25T21:44:25.978Z,93888.25
2023-02-25T21:46:53.967Z,93885.28
2023-02-25T21:49:22.104Z,93883.69
2023-02-25T21:51:51.205Z,93885.03
2023-02-25T21:54:19.180Z,93887.78
2023-02-25T21:56:47.196Z,93883.28
2023-02-25T21:59:16.924Z,93890.59
2023-02-25T22:01:46.391Z,93886.63
2023-02-25T22:04:14.818Z,93889.75
2023-02-25T22:06:45.095Z,93887.41
2023-02-25T22:09:13.074Z,93896.53
2023-02-25T22:11:41.052Z,93890.03
2023-02-25T22:14:10.565Z,93886.44
2023-02-25T22:16:40.544Z,93883.94
2023-02-25T22:19:09.965Z,93894.63
2023-02-25T22:21:38.250Z,93886.88
2023-02-25T22:24:07.322Z,93890.69
2023-02-25T22:26:36.849Z,93892.25
2023-02-25T22:29:07.865Z,93892.09
2023-02-25T22:31:36.382Z,93887.63
2023-02-25T22:34:04.710Z,93883.22
2023-02-25T22:36:34.011Z,93888.50
2023-02-25T22:39:05.772Z,93889.50
2023-02-25T22:41:33.836Z,93889.19
2023-02-25T22:44:03.114Z,93889.28
2023-02-25T22:46:32.924Z,93888.03
2023-02-25T22:49:01.048Z,93883.78
2023-02-25T22:51:31.322Z,93881.53
2023-02-25T22:54:01.118Z,93885.09
2023-02-25T22:56:29.483Z,93878.66
2023-02-25T22:58:57.903Z,93885.44
2023-02-25T23:01:26.821Z,93891.91
2023-02-25T23:03:56.281Z,93889.63
2023-02-25T23:06:42.355Z,93886.59
2023-02-25T23:09:13.339Z,93881.53
2023-02-25T23:11:42.195Z,93882.66
2023-02-25T23:14:10.670Z,93884.88
2023-02-25T23:16:41.416Z,93886.25
2023-02-25T23:19:12.951Z,93877.69
2023-02-25T23:21:41.125Z,93879.97
2023-02-25T23:24:13.729Z,93882.41
2023-02-25T23:26:44.463Z,93869.13
2023-02-25T23:29:13.437Z,93875.91
2023-02-25T23:31:44.294Z,93871.16
2023-02-25T23:34:14.635Z,93866.31
2023-02-25T23:36:44.251Z,93854.25
2023-02-25T23:39:14.421Z,93855.84
2023-02-25T23:41:44.121Z,93862.59
2023-02-25T23:44:13.803Z,93855.63
2023-02-25T23:46:44.918Z,93858.13
2023-02-25T23:49:16.766Z,93855.38
2023-02-25T23:51:46.517Z,93849.75
2023-02-25T23:54:17.126Z,93850.78
2023-02-25T23:56:46.803Z,93858.13
2023-02-25T23:59:14.934Z,93852.47
